Arch, NM

2:56 PM MDT on April 18, 2015 (GMT -0600)
S of ENMU | | Change Station
CLOSE
Current Station
Personal Weather Station
Location: Portales, NM
Elevation: 4078 ft
Nearby Weather Stations

Elev 4078 ft 34.17 °N, 103.35 °W | Updated 4 seconds ago

Mostly Cloudy
Mostly Cloudy
72.2 °F
Feels Like 75 °F
N
15.7
Wind Variable Wind from WNW
Gusts 17.2 mph

Today
High -- | Low -- °F
--% Chance of Precip.
Yesterday
High -- | Low -- °F
Precip. -- in
6:18 AM 7:27 PM
New Moon, 0% visible
Pressure 29.78 in
Visibility 10.0 miles
Clouds Few 9000 ft
Scattered Clouds 14000 ft
Scattered Clouds 17000 ft
Mostly Cloudy 20000 ft
Heat Index 75 °F
Dew Point 30 °F
Humidity 21%
Rainfall 0.00 in
Snow Depth Not available.
UV 6 out of 12
Pollen 9.20 out of 12
Air Quality Not available.
Flu Activity Local Activity
METAR KCVS 181958Z AUTO 24016G23KT 10SM FEW090 SCT140 SCT170 BKN200 18/M03 A2987 RMK AO2 PK WND 23029/29 CIG 090 RWY04 SLP083 T01841028 $

More Conditions Fewer Conditions

Pressure 29.78 in
Visibility 10.0 miles
Clouds Few 9000 ft
Scattered Clouds 14000 ft
Scattered Clouds 17000 ft
Mostly Cloudy 20000 ft
Heat Index 75 °F
Dew Point 30 °F
Humidity 21%
Rainfall 0.00 in
Snow Depth Not available.
UV 6 out of 12
Pollen 9.20 out of 12
Air Quality Not available.
Flu Activity Local Activity
METAR KCVS 181958Z AUTO 24016G23KT 10SM FEW090 SCT140 SCT170 BKN200 18/M03 A2987 RMK AO2 PK WND 23029/29 CIG 090 RWY04 SLP083 T01841028 $

More Conditions Fewer Conditions

Nowcast | as of 2:07 PM MDT on April 18, 2015

A few light rain showers will continue across portions of eastern New Mexico this afternoon. Locations impacted include Melrose... Clovis...Ranchvale...Floyd...Portales...Rogers...Causey and lingo. Rain will be light with under a tenth of an inch at any one location.

×

10-Day Weather Forecast

Almanac

Astronomy

Apr. 18, 2015 Rise Set
Actual Time
Civil Twilight
Nautical Twilight
Astronomical Twilight
Moon
Length of Visible Light
Length of Day
Tomorrow will be .
, % of the Moon is Illuminated

Today's Extremes

State Highs State Lows

Community

WunderPhotos

Upload Photos

1,814,525 photos uploaded!

WunderBlogs® & News

Nearby

Air Quality

  Air Quality AQ Index Pollutant
Not available.

Snow Depth

Station Depth Elevation

Earthquake Activity

City Distance Mag. Time & Date
Minimum magnitude displayed is 2.5.

Coastal Water Temperatures

Place Temperature

Stations

Nearby Weather Stations

Station Location Temp. Windchill Dew Point Humidity Wind Precip. Elev Updated Type